Aviation Digital Data Service (ADDS)

Output produced by TAFs form (1426 UTC 07 December 2016)
found at http://www.aviationweather.gov/adds/tafs/
 
TAF AMD KDOV 070924Z 0709/0814 35010G15KT 9999 OVC007 510303 QNH2984INS 
     BECMG 0717/0718 35009KT 9999 SCT020 QNH3001INS 
     BECMG 0813/0814 27009KT 9999 SCT050 BKN100 QNH3006INS TX10/0719Z TN03/0808Z